Fairdale, North Dakota
Current Conditions -  °F | °C
As of 2:15 AM on Monday 26 Jan 2015 (Local Time) from KD55 Reporting Station
Clear Clear  
Wind Chill: 20°   Ceiling: Unl
Heat Index: 32°   Visibility: 10mi
Dew Point: 28°   Wind: 20mph
Humidity: 87%   Direction: 300°WNW
Pressure: 29.61"   Gusts: NA
Location:  48.49°N, 98.23°W
Report Text: KD55 260815Z AUTO 30017KT 10SM CLR 00/M02 A2961 RMK AO2
Loading
Personal Weather Stations






























Interactive Weather Map New forecast layout! Learn more

10-Day Weather Forecast

Advertisements
Track Severe Weather on mobile